Time;durP1;ratioP1;P1;durP2;ratioP2;P2;SDS_P1;SDS_P2;PMS_P1;PMS_P2;Temp;Humidity;BMP_temperature;BMP_pressure;BME280_temperature;BME280_humidity;BME280_pressure;Samples;Min_cycle;Max_cycle;Signal;HPM_P1;HPM_P2
2022/07/23 00:00:40;;;;;;;10.43;3.70;;;14.70;99.90;;;;;;4955342;28;215266;-66
2022/07/23 00:03:06;;;;;;;10.25;3.55;;;14.70;99.90;;;;;;5035779;28;20058;-66
2022/07/23 00:05:32;;;;;;;9.32;3.63;;;14.60;99.90;;;;;;4946288;28;276552;-66
2022/07/23 00:07:58;;;;;;;10.57;3.50;;;14.60;99.90;;;;;;5030961;28;20041;-67
2022/07/23 00:10:24;;;;;;;8.80;3.53;;;14.50;99.90;;;;;;4999262;28;268711;-65
2022/07/23 00:12:51;;;;;;;9.15;3.50;;;14.40;99.90;;;;;;4991781;28;207420;-66
2022/07/23 00:15:17;;;;;;;8.90;3.60;;;14.40;99.90;;;;;;5021651;28;256650;-67
2022/07/23 00:17:43;;;;;;;11.70;3.88;;;14.30;99.90;;;;;;4962588;28;215575;-66
2022/07/23 00:20:10;;;;;;;9.68;3.65;;;14.30;99.90;;;;;;5021565;28;248585;-67
2022/07/23 00:22:36;;;;;;;10.73;4.07;;;14.20;99.90;;;;;;4970114;28;227767;-66
2022/07/23 00:25:02;;;;;;;9.52;3.78;;;14.20;99.90;;;;;;5013068;28;258896;-66
2022/07/23 00:27:29;;;;;;;9.35;4.40;;;14.10;99.90;;;;;;4993463;28;209416;-66
2022/07/23 00:29:55;;;;;;;10.27;3.95;;;14.10;99.90;;;;;;5014460;28;257060;-66
2022/07/23 00:32:21;;;;;;;14.25;4.78;;;14.20;99.90;;;;;;4997567;28;213293;-66
2022/07/23 00:34:47;;;;;;;12.98;4.25;;;14.10;99.90;;;;;;5013728;28;259537;-66
2022/07/23 00:37:13;;;;;;;10.65;4.18;;;14.10;99.90;;;;;;4984460;28;210006;-66
2022/07/23 00:39:39;;;;;;;11.48;5.00;;;14.00;99.90;;;;;;5003270;28;222244;-67
2022/07/23 00:42:05;;;;;;;11.38;4.72;;;14.00;99.90;;;;;;4995938;28;208331;-66
2022/07/23 00:44:32;;;;;;;14.23;4.72;;;14.00;99.90;;;;;;5031957;28;266049;-67
2022/07/23 00:46:59;;;;;;;11.40;4.55;;;14.00;99.90;;;;;;5001343;28;209662;-67
2022/07/23 00:49:28;;;;;;;10.88;4.65;;;14.00;99.90;;;;;;5025264;28;254199;-66
2022/07/23 00:51:56;;;;;;;11.40;5.03;;;13.90;99.90;;;;;;4987669;28;210175;-67
2022/07/23 00:54:25;;;;;;;11.43;4.60;;;13.90;99.90;;;;;;5018169;28;21397;-67
2022/07/23 00:56:51;;;;;;;14.30;5.25;;;13.80;99.90;;;;;;4990561;28;213604;-67
2022/07/23 00:59:18;;;;;;;15.95;5.18;;;13.80;99.90;;;;;;5016915;28;273401;-66
2022/07/23 01:01:45;;;;;;;11.52;5.20;;;13.80;99.90;;;;;;4978537;28;211890;-66
2022/07/23 01:04:11;;;;;;;12.80;4.70;;;13.80;99.90;;;;;;5003118;28;273619;-66
2022/07/23 01:06:38;;;;;;;12.40;4.47;;;13.80;99.90;;;;;;4996738;28;210260;-65
2022/07/23 01:09:05;;;;;;;10.02;4.40;;;13.70;99.90;;;;;;5011610;28;284827;-66
2022/07/23 01:11:34;;;;;;;11.90;5.40;;;13.70;99.90;;;;;;4985233;28;209741;-66
2022/07/23 01:14:15;;;;;;;11.45;4.85;;;13.60;99.90;;;;;;5012568;28;253542;-65
2022/07/23 01:16:43;;;;;;;11.65;5.10;;;13.60;99.90;;;;;;4997390;28;210966;-66
2022/07/23 01:19:09;;;;;;;11.05;5.35;;;13.60;99.90;;;;;;5024004;28;246027;-66
2022/07/23 01:21:38;;;;;;;9.55;4.93;;;13.50;99.90;;;;;;5002254;28;209849;-66
2022/07/23 01:24:05;;;;;;;12.68;5.82;;;13.50;99.90;;;;;;5027546;28;61940;-66
2022/07/23 01:26:31;;;;;;;12.35;5.32;;;13.50;99.90;;;;;;4994704;28;212377;-67
2022/07/23 01:28:57;;;;;;;10.75;5.20;;;13.50;99.90;;;;;;5013919;28;274053;-68
2022/07/23 01:31:24;;;;;;;13.57;4.97;;;13.50;99.90;;;;;;4981317;28;212783;-66
2022/07/23 01:33:50;;;;;;;11.70;5.40;;;13.40;99.90;;;;;;5008097;28;254669;-67
2022/07/23 01:36:16;;;;;;;13.73;5.80;;;13.40;99.90;;;;;;5004879;28;208998;-66
2022/07/23 01:38:43;;;;;;;10.85;5.20;;;13.40;99.90;;;;;;5007569;28;183954;-65
2022/07/23 01:41:09;;;;;;;11.15;5.82;;;13.30;99.90;;;;;;5002663;28;209132;-66
2022/07/23 01:43:35;;;;;;;13.88;5.88;;;13.30;99.90;;;;;;5028628;28;263093;-65
2022/07/23 01:46:01;;;;;;;11.60;5.57;;;13.30;99.90;;;;;;4991146;28;220186;-66
2022/07/23 01:48:27;;;;;;;10.25;5.53;;;13.30;99.90;;;;;;4995406;28;259155;-66
2022/07/23 01:50:53;;;;;;;12.32;5.63;;;13.30;99.90;;;;;;5001022;28;225715;-65
2022/07/23 01:53:20;;;;;;;13.35;5.93;;;13.20;99.90;;;;;;5028139;28;266486;-66
2022/07/23 01:55:47;;;;;;;11.48;5.43;;;13.20;99.90;;;;;;4976560;28;210197;-65
2022/07/23 01:58:13;;;;;;;10.88;5.47;;;13.10;99.90;;;;;;4997803;28;275833;-66
2022/07/23 02:00:40;;;;;;;17.15;5.55;;;13.10;99.90;;;;;;4969049;28;209165;-67
2022/07/23 02:03:06;;;;;;;10.90;5.20;;;13.10;99.90;;;;;;5034183;28;20049;-66
2022/07/23 02:05:32;;;;;;;10.73;4.90;;;13.00;99.90;;;;;;4957169;28;271120;-66
2022/07/23 02:08:00;;;;;;;12.52;5.20;;;13.10;99.90;;;;;;5042631;28;20041;-65
2022/07/23 02:10:27;;;;;;;12.00;5.65;;;13.00;99.90;;;;;;4997877;28;257103;-66
2022/07/23 02:12:53;;;;;;;10.38;5.03;;;13.00;99.90;;;;;;5016266;28;210184;-66
2022/07/23 02:15:20;;;;;;;13.40;5.80;;;13.00;99.90;;;;;;5041628;28;101669;-66
2022/07/23 02:17:46;;;;;;;10.40;5.00;;;12.90;99.90;;;;;;4986010;28;206560;-66
2022/07/23 02:20:12;;;;;;;10.43;5.13;;;12.90;99.90;;;;;;5012579;28;269132;-66
2022/07/23 02:22:39;;;;;;;11.13;5.32;;;12.90;99.90;;;;;;4994049;28;210999;-66
2022/07/23 02:25:06;;;;;;;11.68;5.38;;;12.90;99.90;;;;;;5016346;28;253820;-66
2022/07/23 02:27:33;;;;;;;11.63;5.75;;;12.80;99.90;;;;;;4991109;28;215855;-66
2022/07/23 02:29:59;;;;;;;10.77;5.47;;;12.80;99.90;;;;;;5018800;28;32021;-66
2022/07/23 02:32:26;;;;;;;11.38;5.78;;;12.80;99.90;;;;;;4993956;28;209888;-65
2022/07/23 02:34:52;;;;;;;14.43;6.05;;;12.80;99.90;;;;;;5006926;28;258492;-66
2022/07/23 02:37:18;;;;;;;9.10;5.05;;;12.70;99.90;;;;;;4998091;28;224426;-66
2022/07/23 02:39:45;;;;;;;15.10;5.65;;;12.70;99.90;;;;;;5015392;28;259889;-66
2022/07/23 02:42:11;;;;;;;10.18;5.22;;;12.70;99.90;;;;;;4971919;28;211247;-66
2022/07/23 02:44:37;;;;;;;11.30;5.57;;;12.70;99.90;;;;;;5020709;28;260393;-66
2022/07/23 02:47:03;;;;;;;13.80;5.95;;;12.70;99.90;;;;;;5002783;28;212757;-66
2022/07/23 02:49:29;;;;;;;10.10;5.20;;;12.60;99.90;;;;;;5021910;28;270132;-66
2022/07/23 02:51:55;;;;;;;12.50;5.38;;;12.60;99.90;;;;;;4992752;28;210211;-66
2022/07/23 02:54:21;;;;;;;12.60;5.93;;;12.60;99.90;;;;;;5025466;28;266601;-66
2022/07/23 02:56:48;;;;;;;13.70;5.30;;;12.60;99.90;;;;;;4988407;28;209713;-65
2022/07/23 02:59:14;;;;;;;10.52;5.10;;;12.60;99.90;;;;;;5012506;28;277485;-66
2022/07/23 03:01:40;;;;;;;12.20;5.50;;;12.50;99.90;;;;;;4989461;28;215040;-66
2022/07/23 03:04:06;;;;;;;10.88;5.15;;;12.50;99.90;;;;;;5003842;28;258021;-66
2022/07/23 03:06:33;;;;;;;9.50;4.63;;;12.50;99.90;;;;;;4998824;28;213438;-67
2022/07/23 03:08:59;;;;;;;11.20;5.10;;;12.50;99.90;;;;;;5013882;28;269474;-67
2022/07/23 03:11:25;;;;;;;9.88;4.70;;;12.50;99.90;;;;;;5004681;28;210086;-66
2022/07/23 03:13:51;;;;;;;9.60;4.90;;;12.50;99.90;;;;;;5030784;28;256087;-66
2022/07/23 03:16:18;;;;;;;10.52;4.72;;;12.40;99.90;;;;;;4999942;28;218347;-66
2022/07/23 03:18:44;;;;;;;13.57;5.03;;;12.40;99.90;;;;;;5027681;28;256960;-66
2022/07/23 03:21:10;;;;;;;9.73;4.60;;;12.40;99.90;;;;;;4999662;28;210668;-66
2022/07/23 03:23:36;;;;;;;9.48;4.47;;;12.40;99.90;;;;;;5015073;28;274555;-66
2022/07/23 03:26:03;;;;;;;9.75;4.90;;;12.30;99.90;;;;;;4997497;28;213521;-66
2022/07/23 03:28:31;;;;;;;9.63;4.37;;;12.30;99.90;;;;;;5028852;28;239501;-66
2022/07/23 03:30:58;;;;;;;9.05;4.22;;;12.30;99.90;;;;;;4987865;28;210093;-66
2022/07/23 03:33:24;;;;;;;9.23;4.67;;;12.20;99.90;;;;;;5016060;28;251565;-66
2022/07/23 03:35:50;;;;;;;11.23;4.72;;;12.20;99.90;;;;;;4983440;28;211094;-65
2022/07/23 03:38:16;;;;;;;8.43;4.45;;;12.20;99.90;;;;;;5014358;28;252626;-65
2022/07/23 03:40:43;;;;;;;9.93;4.38;;;12.20;99.90;;;;;;4988907;28;209282;-66
2022/07/23 03:43:09;;;;;;;10.23;4.32;;;12.10;99.90;;;;;;5048906;28;20045;-66
2022/07/23 03:45:35;;;;;;;10.30;5.03;;;12.10;99.90;;;;;;4974882;28;270726;-65
2022/07/23 03:48:01;;;;;;;9.43;4.25;;;12.10;99.90;;;;;;5025410;28;20056;-66
2022/07/23 03:50:27;;;;;;;10.55;4.90;;;12.10;99.90;;;;;;4995047;28;277483;-64
2022/07/23 03:52:54;;;;;;;9.55;4.93;;;12.10;99.90;;;;;;5021696;28;20049;-66
2022/07/23 03:55:20;;;;;;;8.38;4.40;;;12.10;99.90;;;;;;5036163;28;259817;-66
2022/07/23 03:57:47;;;;;;;11.30;4.97;;;12.00;99.90;;;;;;4966480;28;175742;-66
2022/07/23 04:00:13;;;;;;;9.55;4.50;;;12.00;99.90;;;;;;5018782;28;255067;-66
2022/07/23 04:02:40;;;;;;;10.45;4.32;;;12.00;99.90;;;;;;4991190;28;210687;-66
2022/07/23 04:05:07;;;;;;;11.00;4.63;;;12.00;99.90;;;;;;5019155;28;258867;-66
2022/07/23 04:07:33;;;;;;;10.05;4.32;;;12.00;99.90;;;;;;4992116;28;213129;-66
2022/07/23 04:09:59;;;;;;;9.85;4.35;;;12.00;99.90;;;;;;5027749;28;257503;-66
2022/07/23 04:12:25;;;;;;;10.05;4.65;;;12.00;99.90;;;;;;4991446;28;124219;-67
2022/07/23 04:14:51;;;;;;;11.13;5.22;;;12.00;99.90;;;;;;5019179;28;264008;-67
2022/07/23 04:17:18;;;;;;;9.05;4.35;;;12.00;99.90;;;;;;4995459;28;210681;-66
2022/07/23 04:19:44;;;;;;;9.77;4.70;;;12.00;99.90;;;;;;5016952;28;272008;-66
2022/07/23 04:22:11;;;;;;;9.35;4.22;;;12.00;99.90;;;;;;5004055;28;210686;-66
2022/07/23 04:24:38;;;;;;;9.93;4.55;;;12.00;99.90;;;;;;5021943;28;275339;-66
2022/07/23 04:27:05;;;;;;;8.80;4.20;;;12.10;99.90;;;;;;5005377;28;213357;-66
2022/07/23 04:29:31;;;;;;;9.55;4.53;;;12.10;99.90;;;;;;5018249;28;265808;-66
2022/07/23 04:31:58;;;;;;;10.35;4.47;;;12.20;99.90;;;;;;4981667;28;212968;-66
2022/07/23 04:34:26;;;;;;;10.90;4.72;;;12.10;99.90;;;;;;5004875;28;65738;-66
2022/07/23 04:36:53;;;;;;;8.73;4.75;;;12.20;99.90;;;;;;4989843;28;128750;-66
2022/07/23 04:39:20;;;;;;;10.20;5.50;;;12.30;99.90;;;;;;5021343;28;261506;-65
2022/07/23 04:41:46;;;;;;;12.02;6.10;;;12.30;99.90;;;;;;5006444;28;210464;-66
2022/07/23 04:44:12;;;;;;;9.75;5.00;;;12.40;99.90;;;;;;5037364;28;219515;-66
2022/07/23 04:46:38;;;;;;;12.00;5.20;;;12.40;99.90;;;;;;4989380;28;207867;-65
2022/07/23 04:49:05;;;;;;;13.02;5.50;;;12.40;99.90;;;;;;5010929;28;265825;-66
2022/07/23 04:51:31;;;;;;;11.27;5.68;;;12.50;99.90;;;;;;4997056;28;222345;-66
2022/07/23 04:53:57;;;;;;;13.00;5.68;;;12.50;99.90;;;;;;5027928;28;263947;-66
2022/07/23 04:56:23;;;;;;;11.60;5.40;;;12.60;99.90;;;;;;5005799;28;209856;-66
2022/07/23 04:58:50;;;;;;;12.25;5.20;;;12.60;99.90;;;;;;5025922;28;271937;-66
2022/07/23 05:01:16;;;;;;;11.90;5.32;;;12.70;99.90;;;;;;5002491;28;210340;-66
2022/07/23 05:03:42;;;;;;;10.90;5.75;;;12.70;99.90;;;;;;5016668;28;260291;-66
2022/07/23 05:06:09;;;;;;;13.23;6.18;;;12.70;99.90;;;;;;4998520;28;210412;-66
2022/07/23 05:08:35;;;;;;;14.15;6.07;;;12.70;99.90;;;;;;5023412;28;264563;-66
2022/07/23 05:11:01;;;;;;;14.65;5.78;;;12.80;99.90;;;;;;5004237;28;207753;-67
2022/07/23 05:13:27;;;;;;;12.63;6.05;;;12.90;99.90;;;;;;5011576;28;262887;-65
2022/07/23 05:15:53;;;;;;;11.40;6.10;;;12.90;99.90;;;;;;5007530;28;216213;-65
2022/07/23 05:18:19;;;;;;;12.10;5.88;;;12.90;99.90;;;;;;5015034;28;266975;-65
2022/07/23 05:20:46;;;;;;;12.38;5.85;;;13.00;99.90;;;;;;4986089;28;226624;-66
2022/07/23 05:23:12;;;;;;;12.48;5.78;;;13.10;99.90;;;;;;5045716;28;20057;-66
2022/07/23 05:25:39;;;;;;;11.75;5.55;;;13.10;99.90;;;;;;4982667;28;255652;-67
2022/07/23 05:28:05;;;;;;;11.65;5.90;;;13.10;99.90;;;;;;5014831;28;20045;-65
2022/07/23 05:30:31;;;;;;;13.05;5.75;;;13.20;99.90;;;;;;4978213;28;265064;-65
2022/07/23 05:32:57;;;;;;;11.05;5.53;;;13.30;99.90;;;;;;5053061;28;20056;-66
2022/07/23 05:35:23;;;;;;;13.25;5.90;;;13.30;99.90;;;;;;4993858;28;260351;-66
2022/07/23 05:37:52;;;;;;;10.38;5.50;;;13.40;99.90;;;;;;5006600;28;174621;-68
2022/07/23 05:40:18;;;;;;;12.48;5.75;;;13.50;99.90;;;;;;4999839;28;171040;-66
2022/07/23 05:42:44;;;;;;;14.25;5.70;;;13.50;99.90;;;;;;4991412;28;212291;-65
2022/07/23 05:45:11;;;;;;;16.17;6.03;;;13.60;99.90;;;;;;5023808;28;271300;-69
2022/07/23 05:47:48;;;;;;;15.10;6.10;;;13.70;99.90;;;;;;4984402;28;210563;-65
2022/07/23 05:50:15;;;;;;;15.10;5.50;;;13.80;99.90;;;;;;5017282;28;47741;-65
2022/07/23 05:52:41;;;;;;;15.18;5.75;;;13.90;99.90;;;;;;4983367;28;214454;-66
2022/07/23 05:55:09;;;;;;;12.60;5.10;;;14.00;99.90;;;;;;5032120;28;258401;-65
2022/07/23 05:57:36;;;;;;;11.68;5.07;;;14.10;99.90;;;;;;4996795;28;198833;-67
2022/07/23 06:00:05;;;;;;;11.25;5.40;;;14.20;99.90;;;;;;5032282;28;269053;-68
2022/07/23 06:02:31;;;;;;;12.82;5.03;;;14.30;99.90;;;;;;4971622;28;213616;-67
2022/07/23 06:04:57;;;;;;;12.32;4.63;;;14.50;99.90;;;;;;5002135;28;258289;-67
2022/07/23 06:07:24;;;;;;;9.75;4.15;;;14.60;99.90;;;;;;4994649;28;214705;-67
2022/07/23 06:09:50;;;;;;;12.52;4.22;;;14.80;99.90;;;;;;5024980;28;255573;-66
2022/07/23 06:12:17;;;;;;;9.98;3.65;;;15.10;99.90;;;;;;4977935;28;215017;-66
2022/07/23 06:14:43;;;;;;;10.05;3.70;;;15.40;99.90;;;;;;5014241;28;260938;-66
2022/07/23 06:17:10;;;;;;;9.13;3.08;;;15.60;99.90;;;;;;4981863;28;191741;-67
2022/07/23 06:19:36;;;;;;;8.95;2.70;;;15.80;99.90;;;;;;5025239;28;178158;-65
2022/07/23 06:22:02;;;;;;;7.88;2.50;;;16.00;99.90;;;;;;4986956;28;216809;-66
2022/07/23 06:24:28;;;;;;;8.90;2.55;;;16.20;99.90;;;;;;5016607;28;270637;-65
2022/07/23 06:26:54;;;;;;;8.05;2.50;;;16.30;99.90;;;;;;4995030;28;212856;-65
2022/07/23 06:29:20;;;;;;;7.80;2.30;;;16.50;99.90;;;;;;5007410;28;242938;-66
2022/07/23 06:31:46;;;;;;;6.72;1.73;;;16.70;99.90;;;;;;5002215;28;211521;-66
2022/07/23 06:34:13;;;;;;;6.28;1.85;;;16.90;99.90;;;;;;5018253;28;263825;-66
2022/07/23 06:36:39;;;;;;;9.13;1.70;;;17.00;99.90;;;;;;4992449;28;207079;-66
2022/07/23 06:39:05;;;;;;;6.95;1.70;;;17.10;99.90;;;;;;5016824;28;248364;-66
2022/07/23 06:41:31;;;;;;;5.05;1.48;;;17.30;99.90;;;;;;4992255;28;219018;-66
2022/07/23 06:43:57;;;;;;;8.30;1.77;;;17.40;99.90;;;;;;5016688;28;269932;-65
2022/07/23 06:46:25;;;;;;;9.55;1.80;;;17.50;99.90;;;;;;4990571;28;213618;-65
2022/07/23 06:48:52;;;;;;;9.15;1.90;;;17.70;99.90;;;;;;5011514;28;266345;-66
2022/07/23 06:51:18;;;;;;;4.78;1.30;;;17.90;99.90;;;;;;4993613;28;207243;-67
2022/07/23 06:53:44;;;;;;;5.80;1.30;;;18.10;99.90;;;;;;5018109;28;277770;-66
2022/07/23 06:56:10;;;;;;;10.48;1.40;;;18.10;99.90;;;;;;4991151;28;206794;-67
2022/07/23 06:58:36;;;;;;;6.30;1.10;;;18.20;99.90;;;;;;5016721;28;255559;-66
2022/07/23 07:01:02;;;;;;;7.45;1.13;;;18.30;99.90;;;;;;4989202;28;208640;-66
2022/07/23 07:03:29;;;;;;;6.88;1.15;;;18.40;99.90;;;;;;5006601;28;247966;-67
2022/07/23 07:05:57;;;;;;;8.15;1.25;;;18.50;99.90;;;;;;5006105;28;209134;-66
2022/07/23 07:08:24;;;;;;;5.43;1.10;;;18.50;99.90;;;;;;5004986;28;260605;-68
2022/07/23 07:10:50;;;;;;;5.38;0.90;;;18.70;99.90;;;;;;4989093;28;209430;-67
2022/07/23 07:13:16;;;;;;;4.88;0.93;;;18.60;99.90;;;;;;5000819;28;255754;-65
2022/07/23 07:15:42;;;;;;;5.13;0.80;;;18.60;99.90;;;;;;4984397;28;224674;-66
2022/07/23 07:18:08;;;;;;;4.93;0.90;;;18.70;99.90;;;;;;5034800;28;20513;-66
2022/07/23 07:20:35;;;;;;;3.83;0.75;;;18.60;99.90;;;;;;4969405;28;270543;-66
2022/07/23 07:23:01;;;;;;;8.55;0.90;;;18.80;99.90;;;;;;5030661;28;20053;-67
2022/07/23 07:25:27;;;;;;;5.82;0.80;;;19.10;99.90;;;;;;5005126;28;272998;-66
2022/07/23 07:27:53;;;;;;;3.00;0.60;;;19.10;99.90;;;;;;5010991;28;206829;-66
2022/07/23 07:30:19;;;;;;;6.22;0.90;;;19.00;99.90;;;;;;5019302;28;247931;-67
2022/07/23 07:32:45;;;;;;;4.95;0.70;;;19.10;99.90;;;;;;4994295;28;216683;-66
2022/07/23 07:35:12;;;;;;;4.97;0.85;;;19.10;99.90;;;;;;5033946;28;271362;-67
2022/07/23 07:37:38;;;;;;;2.00;0.60;;;19.20;99.90;;;;;;4976374;28;222462;-67
2022/07/23 07:40:04;;;;;;;5.18;0.80;;;19.30;99.90;;;;;;5025716;28;277381;-70
2022/07/23 07:42:32;;;;;;;2.50;0.60;;;19.20;99.90;;;;;;4986560;28;213577;-67
2022/07/23 07:44:59;;;;;;;6.00;0.95;;;18.80;99.50;;;;;;5030556;28;263582;-68
2022/07/23 07:47:25;;;;;;;4.72;0.80;;;19.10;99.90;;;;;;4976516;28;216197;-67
2022/07/23 07:49:51;;;;;;;3.25;0.73;;;19.40;99.60;;;;;;5014842;28;263958;-67
2022/07/23 07:52:17;;;;;;;4.93;0.80;;;19.70;99.90;;;;;;4989739;28;231753;-67
2022/07/23 07:54:43;;;;;;;2.15;0.60;;;19.70;98.90;;;;;;5003283;28;204142;-68
2022/07/23 07:57:09;;;;;;;5.00;0.75;;;19.90;99.90;;;;;;4955645;28;197675;-67
2022/07/23 07:59:36;;;;;;;4.82;0.82;;;20.40;99.90;;;;;;5025454;28;276058;-66
2022/07/23 08:02:02;;;;;;;5.72;0.90;;;20.70;99.30;;;;;;4996863;28;209595;-67
2022/07/23 08:04:28;;;;;;;2.90;0.68;;;20.70;98.80;;;;;;4997074;28;255520;-67
2022/07/23 08:06:54;;;;;;;2.42;0.60;;;20.60;96.30;;;;;;4971206;28;209776;-67
2022/07/23 08:09:20;;;;;;;5.47;0.70;;;20.30;96.50;;;;;;5024089;28;78833;-67
2022/07/23 08:11:46;;;;;;;3.88;0.70;;;20.40;97.60;;;;;;4987066;28;209956;-66
2022/07/23 08:14:12;;;;;;;5.03;0.80;;;20.50;96.60;;;;;;5015753;28;260982;-66
2022/07/23 08:16:39;;;;;;;4.05;0.80;;;20.80;97.50;;;;;;4993530;28;209141;-67
2022/07/23 08:19:05;;;;;;;5.72;0.80;;;21.30;96.80;;;;;;5020038;28;87614;-66
2022/07/23 08:21:31;;;;;;;4.78;0.88;;;21.40;94.70;;;;;;5020373;28;209374;-67
2022/07/23 08:23:57;;;;;;;3.47;0.70;;;21.10;95.50;;;;;;5022036;28;160557;-66
2022/07/23 08:26:23;;;;;;;3.00;0.70;;;21.00;94.80;;;;;;4992038;28;208784;-66
2022/07/23 08:28:49;;;;;;;3.00;0.70;;;21.30;95.70;;;;;;5023274;28;254572;-66
2022/07/23 08:31:17;;;;;;;6.78;0.80;;;21.60;95.30;;;;;;4997372;28;210383;-68
2022/07/23 08:33:43;;;;;;;3.60;0.70;;;21.90;94.30;;;;;;5019217;28;263960;-68
2022/07/23 08:36:09;;;;;;;2.65;0.70;;;21.70;92.30;;;;;;4977768;28;209881;-68
2022/07/23 08:38:35;;;;;;;3.67;0.60;;;21.60;93.40;;;;;;5027991;28;263481;-66
2022/07/23 08:41:04;;;;;;;3.65;0.70;;;21.60;93.30;;;;;;4987734;28;208822;-67
2022/07/23 08:43:32;;;;;;;3.97;0.80;;;21.70;93.90;;;;;;5013839;28;254007;-68
2022/07/23 08:45:59;;;;;;;4.93;0.80;;;21.80;92.90;;;;;;5011856;28;212580;-68
2022/07/23 08:48:28;;;;;;;4.13;0.70;;;21.80;92.50;;;;;;5025235;28;261696;-67
2022/07/23 08:50:56;;;;;;;3.35;0.63;;;21.60;91.70;;;;;;4981783;28;206238;-68
2022/07/23 08:53:24;;;;;;;2.53;0.63;;;21.00;91.40;;;;;;5018213;28;259038;-67
2022/07/23 08:55:53;;;;;;;3.20;0.73;;;20.90;91.40;;;;;;4997948;28;210356;-67
2022/07/23 08:58:20;;;;;;;7.10;0.70;;;20.70;92.30;;;;;;5027220;28;267877;-66
2022/07/23 09:00:46;;;;;;;3.55;0.70;;;20.90;92.40;;;;;;4984001;28;235551;-67
2022/07/23 09:03:19;;;;;;;3.33;0.88;;;21.20;92.30;;;;;;5051607;28;20045;-66
2022/07/23 09:05:46;;;;;;;5.28;0.88;;;21.30;90.50;;;;;;4952250;28;207101;-66
2022/07/23 09:08:13;;;;;;;4.03;0.98;;;21.30;92.00;;;;;;4987764;28;20407;-67
2022/07/23 09:10:46;;;;;;;4.28;0.90;;;21.30;92.40;;;;;;4943099;28;223043;-66
2022/07/23 09:13:33;;;;;;;4.40;0.93;;;21.30;90.70;;;;;;5019616;28;20052;-66
2022/07/23 09:16:10;;;;;;;3.47;0.73;;;21.30;91.80;;;;;;4947214;28;210806;-66
2022/07/23 09:18:45;;;;;;;4.03;0.80;;;21.60;91.80;;;;;;5021335;28;256721;-66
2022/07/23 09:21:19;;;;;;;5.32;0.80;;;21.80;91.10;;;;;;5002810;28;214371;-66
2022/07/23 09:23:52;;;;;;;2.90;0.68;;;21.80;90.90;;;;;;5012202;28;106747;-66
2022/07/23 09:26:30;;;;;;;3.55;0.70;;;21.70;91.30;;;;;;4999103;28;210982;-66
2022/07/23 09:29:04;;;;;;;3.85;0.70;;;21.60;91.20;;;;;;4991363;28;69864;-66
2022/07/23 09:31:49;;;;;;;4.50;0.77;;;21.30;90.60;;;;;;4994561;28;209440;-66
2022/07/23 09:34:18;;;;;;;3.90;0.77;;;21.30;90.60;;;;;;5019236;28;274535;-67
2022/07/23 09:36:45;;;;;;;4.05;0.70;;;20.90;91.20;;;;;;5001778;28;214025;-67
2022/07/23 09:39:12;;;;;;;6.80;0.98;;;21.00;91.90;;;;;;5015786;28;265799;-66
2022/07/23 09:41:46;;;;;;;4.15;0.85;;;21.40;92.00;;;;;;4992896;28;216877;-66
2022/07/23 09:44:16;;;;;;;5.35;0.70;;;21.40;91.30;;;;;;5024953;28;264712;-66
2022/07/23 09:46:45;;;;;;;4.35;0.90;;;21.50;91.60;;;;;;4994333;28;206899;-66
2022/07/23 09:49:19;;;;;;;2.10;0.70;;;21.60;91.00;;;;;;5026680;28;270469;-66
2022/07/23 09:52:06;;;;;;;3.70;0.70;;;21.70;90.30;;;;;;4982517;28;209466;-66
2022/07/23 09:54:36;;;;;;;2.95;0.73;;;21.40;89.50;;;;;;5017902;28;180431;-65
2022/07/23 09:57:16;;;;;;;5.82;1.05;;;21.10;90.80;;;;;;4991888;28;214493;-66
2022/07/23 09:59:46;;;;;;;3.97;0.90;;;21.10;90.70;;;;;;5013621;28;268373;-66
2022/07/23 10:02:14;;;;;;;3.33;0.75;;;21.20;91.00;;;;;;4994076;28;209735;-66
2022/07/23 10:04:41;;;;;;;5.32;0.80;;;21.50;91.60;;;;;;5001976;28;263011;-67
2022/07/23 10:07:10;;;;;;;2.67;0.90;;;21.70;91.90;;;;;;4997273;28;207503;-67
2022/07/23 10:09:38;;;;;;;4.15;0.90;;;22.00;91.30;;;;;;5023689;28;160921;-67
2022/07/23 10:14:40;;;;;;;5.95;1.00;;;21.90;90.70;;;;;;5013775;28;265897;-67
2022/07/23 10:17:06;;;;;;;5.70;0.98;;;22.00;91.00;;;;;;4976373;28;215904;-67
2022/07/23 10:19:33;;;;;;;4.28;0.70;;;22.10;90.70;;;;;;5020761;28;274627;-67
2022/07/23 10:22:06;;;;;;;4.10;0.88;;;22.40;91.00;;;;;;4977426;28;212294;-66
2022/07/23 10:25:29;;;;;;;5.40;1.00;;;22.70;90.00;;;;;;5024788;28;273576;-66
2022/07/23 10:28:22;;;;;;;4.18;0.88;;;23.00;88.70;;;;;;4879847;29;206296;-67
2022/07/23 10:31:10;;;;;;;5.03;1.00;;;22.60;88.30;;;;;;4847288;29;208193;-68
2022/07/23 10:34:21;;;;;;;4.80;0.90;;;22.40;89.40;;;;;;4913916;29;46972;-66
2022/07/23 10:36:49;;;;;;;5.95;1.02;;;22.30;89.80;;;;;;4812254;29;206718;-66
2022/07/23 10:39:25;;;;;;;10.40;1.63;;;22.20;90.70;;;;;;4846964;29;113700;-66
2022/07/23 10:41:51;;;;;;;5.28;1.02;;;22.40;91.20;;;;;;4815278;29;207862;-66
2022/07/23 10:44:19;;;;;;;4.43;1.00;;;22.60;89.50;;;;;;4834229;29;115700;-66
2022/07/23 10:49:31;;;;;;;7.68;1.98;;;22.20;90.30;;;;;;4845534;29;98254;-66
2022/07/23 10:52:22;;;;;;;5.40;1.00;;;22.10;91.00;;;;;;4823951;29;178383;-66
2022/07/23 10:55:15;;;;;;;4.40;1.00;;;22.40;90.20;;;;;;4849399;29;131136;-66
2022/07/23 10:57:49;;;;;;;8.48;1.52;;;22.30;90.30;;;;;;4821684;29;210345;-67
2022/07/23 11:00:24;;;;;;;6.80;2.30;;;22.20;90.70;;;;;;4940095;28;20217;-66
2022/07/23 11:02:53;;;;;;;7.15;1.35;;;22.40;90.70;;;;;;4892211;29;210555;-66
2022/07/23 11:05:24;;;;;;;5.32;1.38;;;22.70;90.20;;;;;;4900092;29;148348;-66
2022/07/23 11:08:10;;;;;;;6.72;2.08;;;22.90;90.00;;;;;;4890015;29;207492;-66
2022/07/23 11:10:47;;;;;;;3.95;1.10;;;23.50;88.10;;;;;;4882456;28;210040;-67
2022/07/23 11:13:22;;;;;;;6.63;1.00;;;23.30;88.20;;;;;;5007068;28;264658;-66
2022/07/23 11:16:14;;;;;;;7.57;1.40;;;23.10;87.70;;;;;;5002619;28;209819;-66
2022/07/23 11:18:43;;;;;;;7.18;1.30;;;23.10;89.20;;;;;;5038841;28;251602;-66
2022/07/23 11:21:29;;;;;;;6.60;1.40;;;23.20;90.00;;;;;;5005602;28;210577;-66
2022/07/23 11:24:07;;;;;;;5.40;1.10;;;23.90;87.80;;;;;;5011967;28;273571;-66
2022/07/23 11:26:56;;;;;;;8.00;1.20;;;23.40;90.10;;;;;;4990403;28;215153;-65
2022/07/23 11:29:27;;;;;;;4.50;1.30;;;23.40;89.70;;;;;;5027968;28;265129;-66
2022/07/23 11:32:22;;;;;;;5.85;1.30;;;23.50;88.80;;;;;;5004697;28;212113;-66
2022/07/23 11:34:50;;;;;;;5.85;1.50;;;23.30;87.80;;;;;;5000988;28;271489;-66
2022/07/23 11:37:40;;;;;;;6.50;1.30;;;23.50;87.80;;;;;;4972082;28;210315;-65
2022/07/23 11:40:12;;;;;;;7.45;1.20;;;24.00;88.70;;;;;;5017079;28;256103;-66
2022/07/23 11:43:03;;;;;;;5.57;1.20;;;24.20;87.60;;;;;;5004787;28;195341;-66
2022/07/23 11:45:38;;;;;;;5.40;1.05;;;24.30;89.00;;;;;;4977130;28;256923;-67
2022/07/23 11:48:08;;;;;;;6.97;1.13;;;24.60;88.10;;;;;;5035998;28;20049;-67
2022/07/23 11:50:35;;;;;;;5.40;1.10;;;24.70;86.20;;;;;;4984727;28;270412;-66
2022/07/23 11:53:02;;;;;;;6.63;1.42;;;25.20;86.30;;;;;;5043547;28;20064;-66
2022/07/23 11:55:28;;;;;;;5.07;1.17;;;25.30;85.10;;;;;;4982409;28;211857;-64
2022/07/23 11:57:55;;;;;;;5.53;1.20;;;25.40;85.70;;;;;;5050235;28;20080;-65
2022/07/23 12:00:24;;;;;;;28.88;1.90;;;26.10;84.90;;;;;;5026113;28;264131;-66
2022/07/23 12:02:53;;;;;;;15.75;1.58;;;25.90;83.30;;;;;;4977012;28;183987;-65
2022/07/23 12:05:23;;;;;;;5.68;1.20;;;25.60;83.40;;;;;;5024077;28;266106;-65
2022/07/23 12:07:51;;;;;;;6.00;1.37;;;25.60;82.40;;;;;;4973084;28;214112;-67
2022/07/23 12:10:19;;;;;;;6.82;1.30;;;25.10;81.40;;;;;;5013567;28;256235;-67
2022/07/23 12:12:49;;;;;;;7.07;1.40;;;24.40;83.00;;;;;;4985889;28;210308;-67
2022/07/23 12:15:17;;;;;;;5.95;1.38;;;24.10;83.80;;;;;;5006791;28;212588;-66
2022/07/23 12:17:46;;;;;;;5.30;1.35;;;23.90;85.50;;;;;;4986870;28;224201;-67
2022/07/23 12:20:15;;;;;;;5.80;1.20;;;24.30;85.50;;;;;;5023555;28;69632;-67
2022/07/23 12:22:48;;;;;;;8.05;1.33;;;24.80;86.00;;;;;;4993642;28;204553;-67
2022/07/23 12:25:22;;;;;;;6.03;1.20;;;25.40;84.60;;;;;;5035677;28;269732;-67
2022/07/23 12:28:13;;;;;;;5.85;1.23;;;25.20;81.90;;;;;;4985873;28;111872;-68
2022/07/23 12:30:43;;;;;;;;;;;24.60;81.50;;;;;;4973770;28;209745;-67
2022/07/23 12:33:21;;;;;;;6.88;1.35;;;24.50;82.60;;;;;;5046233;28;19932;-67
2022/07/23 12:35:48;;;;;;;6.13;1.40;;;24.60;85.10;;;;;;4974184;28;182807;-67
2022/07/23 12:38:19;;;;;;;5.57;1.40;;;24.80;83.80;;;;;;5021641;28;271420;-65
2022/07/23 12:40:53;;;;;;;6.05;1.33;;;24.70;82.60;;;;;;4987752;28;211343;-68
2022/07/23 12:43:27;;;;;;;6.50;1.60;;;24.70;84.50;;;;;;5031177;28;271879;-67
2022/07/23 12:46:08;;;;;;;6.45;1.30;;;24.50;82.40;;;;;;5000230;28;207825;-67